Airfield :
LOGIN :

Register | Disclaimer

   EN    FR    IT 

 










Legend :    VFR   Marginal VFR   IFR   Intensive IFR   Very Intensive IFR
Visi :
Ceiling :
>= 8 km
>= 3000ft
5 to 8 km
1000 to 3000 ft
1500m to 5 km
500 to 1000 ft
800 to 1500m
200 to 500 ft
< 800m
< 200 ft
Symbols :   Thunderstorms  Fog  Heavy snow  Heavy precipitations  Wind > 20 kt
SIGMETs :     Misc.  Thunderstorms  Icing  Turbulence  Mountain Waves  Volcanic Ashes







- Airport Elevation : 13 ft
- IATA code : CAG


LIEE - Cagliari Elmas

CURRENT METAR :
  • 200050Z 34006KT CAVOK 20/19 Q1014

EXPIRED METARs :
  • 200020Z 33006KT CAVOK 20/19 Q1015
  • 192350Z 32006KT CAVOK 21/19 Q1015
  • 192250Z 33006KT CAVOK 21/19 Q1015
  • 192220Z 31006KT CAVOK 21/19 Q1015

TAF TAF LIEE
Valid from the 20 at 00:00 until the 21 at 00:00 UTC


192300Z 2000/2024 VRB04KT 9999 SCT030
TEMPO 2006/2009 4000 TSRA
BECMG 2009/2011 15010KT
TEMPO 2012/2016 4000 TSRA
BECMG 2017/2019 VRB05KT
No reported NOTAMs for that airfield.
2 SIGMETs reported for the Roma FIR (LIRR) :
 
Severe turbulence
LIRR SIGMET 8 VALID 192300/200200 LIIB
LIRR ROMA FIR SEV TURB FCST WI N3921 E01124 - N3752 E01038 - N3728 E01126 - N3631 E01130 - N3629 E01532 - N3922 E01259 - N3921 E01124 FL280/360 MOV E WKN=
Embedded thunderstorms
LIRR SIGMET 7 VALID 192300/200200 LIIB
LIRR ROMA FIR EMBD TS FCST WI N3823 E00928 - N4012 E00949 - N4030 E01245 - N3918 E01545 - N3628 E01732 - N3630 E01131 - N3731 E01128 - N3823 E00928 TOP ABV FL340 MOV E NC=



MET'MAP, your aeronautical weather chart ! - Copyright ORBIFLY December 2007 - Disclaimer

ORBIFLY MET'MAP TEAM :

Programming & Development : Alexandra Zaïnal
Concept & Development : Baudouin d'Aumeries
Co-Development & Prog : Marc-Olivier Méhu
Technical & hardware support : Manuel Goepfert

Contact : metmap@orbifly.com




SOURCES & CREDITS :

   NOAA